Time;durP1;ratioP1;P1;durP2;ratioP2;P2;SDS_P1;SDS_P2;PMS_P1;PMS_P2;Temp;Humidity;BMP_temperature;BMP_pressure;BME280_temperature;BME280_humidity;BME280_pressure;Samples;Min_cycle;Max_cycle;Signal;HPM_P1;HPM_P2
2022/11/29 09:02:54;;;;;;;6.10;3.23;;;8.20;99.90;;;;;;4912067;23;20231;-75
2022/11/29 09:05:20;;;;;;;5.53;3.60;;;8.30;99.90;;;;;;4871671;29;20223;-76
2022/11/29 09:07:47;;;;;;;8.07;3.83;;;8.30;99.90;;;;;;4880209;29;20773;-76
2022/11/29 09:10:14;;;;;;;6.30;4.10;;;8.50;99.90;;;;;;4887926;29;20226;-77
2022/11/29 09:12:43;;;;;;;6.17;3.67;;;8.50;99.90;;;;;;4899026;29;20680;-73
2022/11/29 09:15:11;;;;;;;9.27;4.53;;;8.50;99.90;;;;;;4899052;29;20234;-74
2022/11/29 09:17:38;;;;;;;13.73;4.57;;;8.50;99.90;;;;;;4899067;29;20215;-74
2022/11/29 09:20:08;;;;;;;12.77;4.83;;;8.60;99.90;;;;;;4884741;29;20725;-72
2022/11/29 09:22:34;;;;;;;11.43;4.43;;;8.70;99.90;;;;;;4880190;29;20761;-76
2022/11/29 09:25:01;;;;;;;10.17;4.77;;;8.60;99.90;;;;;;4880135;29;20215;-75
2022/11/29 09:27:28;;;;;;;11.77;5.10;;;8.70;99.90;;;;;;4880420;29;20211;-75
2022/11/29 09:29:55;;;;;;;10.37;4.70;;;8.90;99.90;;;;;;4880127;29;20238;-75
2022/11/29 09:32:22;;;;;;;10.47;4.67;;;9.10;99.90;;;;;;4879822;29;20694;-73
2022/11/29 09:34:49;;;;;;;10.70;5.10;;;9.10;99.90;;;;;;4879607;29;20235;-74
2022/11/29 09:37:17;;;;;;;8.77;4.77;;;9.00;99.90;;;;;;4879523;29;20506;-77
2022/11/29 09:39:44;;;;;;;12.37;6.00;;;9.00;99.90;;;;;;4879908;29;20257;-77
2022/11/29 09:42:35;;;;;;;10.97;4.97;;;9.20;99.90;;;;;;4879262;29;20215;-73
2022/11/29 09:45:06;;;;;;;9.70;4.50;;;9.10;99.90;;;;;;4879042;29;20207;-75
2022/11/29 09:48:04;;;;;;;8.23;4.50;;;9.10;99.90;;;;;;4879847;29;20217;-76
2022/11/29 09:50:33;;;;;;;8.57;4.90;;;9.00;99.90;;;;;;4879646;29;20314;-77
2022/11/29 09:53:25;;;;;;;8.03;4.43;;;9.20;99.90;;;;;;4879557;29;20208;-78
2022/11/29 09:56:03;;;;;;;7.97;4.77;;;9.00;99.90;;;;;;4879135;29;20215;-76
2022/11/29 09:58:36;;;;;;;11.00;4.53;;;9.00;99.90;;;;;;4879009;29;20238;-72
2022/11/29 10:01:08;;;;;;;8.10;4.60;;;9.10;99.90;;;;;;4878777;29;20211;-72
2022/11/29 10:03:40;;;;;;;9.87;4.27;;;9.20;99.90;;;;;;4879180;29;20215;-72
2022/11/29 10:06:13;;;;;;;8.63;3.97;;;9.20;99.90;;;;;;4879369;29;20297;-77
2022/11/29 10:08:47;;;;;;;8.53;4.37;;;9.40;99.90;;;;;;4879170;29;20716;-73
2022/11/29 10:11:21;;;;;;;7.80;4.10;;;9.20;99.90;;;;;;4879550;29;20215;-74
2022/11/29 10:13:52;;;;;;;7.40;4.13;;;9.30;99.90;;;;;;4879322;29;20597;-75
2022/11/29 10:16:25;;;;;;;8.43;4.87;;;9.30;99.90;;;;;;4879236;29;20218;-74
2022/11/29 10:18:58;;;;;;;8.53;4.70;;;9.50;99.90;;;;;;4878806;29;20233;-76
2022/11/29 10:21:32;;;;;;;9.23;4.20;;;9.70;99.90;;;;;;4879580;29;20216;-77
2022/11/29 10:24:06;;;;;;;8.67;4.53;;;9.60;99.90;;;;;;4879202;29;20712;-76
2022/11/29 10:26:33;;;;;;;10.93;5.07;;;9.60;99.90;;;;;;4878979;29;20211;-74
2022/11/29 10:29:00;;;;;;;9.63;4.30;;;9.60;99.90;;;;;;4879328;29;20317;-76
2022/11/29 10:31:31;;;;;;;7.70;3.93;;;9.80;99.90;;;;;;4879099;29;20692;-73
2022/11/29 10:34:00;;;;;;;7.53;4.17;;;9.70;99.90;;;;;;4879339;29;20589;-76
2022/11/29 10:36:33;;;;;;;6.87;4.30;;;9.80;99.90;;;;;;4879194;29;20220;-77
2022/11/29 10:39:05;;;;;;;8.57;4.57;;;9.90;99.90;;;;;;4879288;29;20317;-73
2022/11/29 10:41:34;;;;;;;10.80;5.00;;;10.10;99.90;;;;;;4878966;29;20665;-74
2022/11/29 10:44:01;;;;;;;10.47;5.03;;;10.10;99.90;;;;;;4879070;29;20215;-76
2022/11/29 10:46:31;;;;;;;7.73;4.67;;;10.10;99.90;;;;;;4879212;29;20207;-76
2022/11/29 10:49:01;;;;;;;9.03;4.73;;;10.10;99.90;;;;;;4878990;29;20235;-76
2022/11/29 10:51:29;;;;;;;8.30;4.23;;;10.30;99.90;;;;;;4879006;29;20211;-75
2022/11/29 10:53:59;;;;;;;7.67;4.50;;;10.20;99.90;;;;;;4878509;29;20210;-73
2022/11/29 10:56:36;;;;;;;9.87;4.40;;;10.40;99.90;;;;;;4878966;29;20218;-73
2022/11/29 10:59:07;;;;;;;7.90;4.00;;;10.60;99.90;;;;;;4878792;29;20258;-73
2022/11/29 11:01:38;;;;;;;8.97;5.40;;;10.70;99.90;;;;;;4878352;29;20249;-75
2022/11/29 11:04:09;;;;;;;6.77;4.23;;;10.40;99.90;;;;;;4878615;29;20211;-75
2022/11/29 11:06:45;;;;;;;7.63;4.00;;;10.30;99.90;;;;;;4878938;29;20679;-76
2022/11/29 11:09:19;;;;;;;6.40;4.20;;;10.50;99.90;;;;;;4878972;29;20326;-75
2022/11/29 11:11:53;;;;;;;7.37;3.90;;;10.70;99.90;;;;;;4879211;29;20215;-72
2022/11/29 11:14:22;;;;;;;7.40;3.73;;;10.60;99.90;;;;;;4882351;29;20246;-76
2022/11/29 11:16:50;;;;;;;7.63;4.30;;;10.50;99.90;;;;;;4882145;29;20208;-77
2022/11/29 11:19:31;;;;;;;7.43;4.07;;;10.40;99.90;;;;;;4882052;29;20966;-77
2022/11/29 11:22:00;;;;;;;8.73;4.40;;;10.60;99.90;;;;;;4882293;29;20222;-75
2022/11/29 11:24:29;;;;;;;8.93;3.67;;;10.70;99.90;;;;;;4882155;29;20241;-73
2022/11/29 11:26:58;;;;;;;8.10;3.80;;;10.60;99.90;;;;;;4882259;29;20207;-73
2022/11/29 11:29:28;;;;;;;7.30;3.83;;;10.50;99.90;;;;;;4882088;29;20243;-73
2022/11/29 11:31:56;;;;;;;5.97;4.00;;;10.40;99.90;;;;;;4881979;29;20215;-76
2022/11/29 11:34:32;;;;;;;6.07;3.70;;;10.40;99.90;;;;;;4882035;29;20235;-75
2022/11/29 11:37:25;;;;;;;11.33;4.30;;;10.50;99.90;;;;;;4882171;29;20215;-75
2022/11/29 11:39:54;;;;;;;8.60;3.93;;;10.40;99.90;;;;;;4876460;29;20238;-75
2022/11/29 11:42:38;;;;;;;7.30;3.83;;;10.40;99.90;;;;;;4881702;29;20574;-74
2022/11/29 11:45:21;;;;;;;7.50;4.03;;;10.40;99.90;;;;;;4881802;29;20250;-73
2022/11/29 11:47:50;;;;;;;8.27;4.00;;;10.40;99.90;;;;;;4881738;29;20230;-76
2022/11/29 11:50:27;;;;;;;7.30;4.50;;;10.30;99.90;;;;;;4881503;29;20237;-76
2022/11/29 11:52:56;;;;;;;7.60;4.13;;;10.10;99.90;;;;;;4881714;29;20211;-76
2022/11/29 11:55:30;;;;;;;10.70;4.60;;;10.00;99.90;;;;;;4881808;29;20238;-76
2022/11/29 11:58:14;;;;;;;9.57;4.27;;;10.10;99.90;;;;;;4881551;29;20213;-74
2022/11/29 12:00:45;;;;;;;14.23;4.60;;;10.20;99.90;;;;;;4881894;29;20287;-76
2022/11/29 12:03:29;;;;;;;10.07;3.97;;;10.30;99.90;;;;;;4881221;29;20245;-73
2022/11/29 12:06:01;;;;;;;7.87;4.03;;;10.30;99.90;;;;;;4881469;29;20788;-72
2022/11/29 12:08:29;;;;;;;11.23;4.57;;;10.20;99.90;;;;;;4881770;29;20211;-75
2022/11/29 12:11:00;;;;;;;8.50;4.50;;;10.10;99.90;;;;;;4881433;29;20231;-73
2022/11/29 12:13:32;;;;;;;11.40;4.50;;;10.10;99.90;;;;;;4881333;29;20207;-75
2022/11/29 12:16:03;;;;;;;12.93;4.90;;;10.00;99.90;;;;;;4881562;29;20249;-76
2022/11/29 12:18:37;;;;;;;7.93;4.40;;;9.80;99.90;;;;;;4881209;29;20298;-75
2022/11/29 12:21:11;;;;;;;10.20;4.70;;;9.90;99.90;;;;;;4881057;29;20737;-76
2022/11/29 12:23:44;;;;;;;9.00;4.63;;;9.90;99.90;;;;;;4880906;29;20211;-75
2022/11/29 12:26:16;;;;;;;8.73;4.30;;;9.90;99.90;;;;;;4880939;29;20616;-72
2022/11/29 12:28:45;;;;;;;9.97;3.83;;;10.00;99.90;;;;;;4881196;29;20302;-72
2022/11/29 12:31:25;;;;;;;6.97;4.13;;;10.00;99.90;;;;;;4881081;29;20211;-71
2022/11/29 12:34:03;;;;;;;7.33;3.83;;;10.20;99.90;;;;;;4889092;29;20211;-72
2022/11/29 12:36:41;;;;;;;5.63;3.30;;;10.20;99.90;;;;;;4892091;29;20235;-73
2022/11/29 12:39:30;;;;;;;7.13;3.67;;;10.40;99.90;;;;;;4891296;29;20235;-74
2022/11/29 12:42:03;;;;;;;5.97;3.50;;;10.40;99.90;;;;;;4881157;29;20219;-74
2022/11/29 12:44:39;;;;;;;7.03;3.50;;;10.60;99.90;;;;;;4880972;29;20225;-73
2022/11/29 12:47:13;;;;;;;6.20;2.90;;;10.60;99.90;;;;;;4880650;29;20228;-76
2022/11/29 12:49:53;;;;;;;5.33;3.10;;;10.50;99.90;;;;;;4880555;29;20241;-76
2022/11/29 12:52:26;;;;;;;8.67;3.23;;;10.60;99.90;;;;;;4875842;29;20207;-73
2022/11/29 12:55:04;;;;;;;7.43;3.37;;;10.60;99.90;;;;;;4880391;29;20322;-73
2022/11/29 12:57:38;;;;;;;6.17;3.40;;;10.50;99.90;;;;;;4880276;29;20207;-74
2022/11/29 13:00:09;;;;;;;9.20;3.77;;;10.40;99.90;;;;;;4879930;29;20257;-74
2022/11/29 13:02:54;;;;;;;6.43;3.27;;;10.60;99.90;;;;;;4879349;29;20578;-77
2022/11/29 13:05:36;;;;;;;6.67;3.73;;;10.80;99.90;;;;;;4880319;29;20302;-73
2022/11/29 13:08:17;;;;;;;7.97;4.03;;;10.90;99.90;;;;;;4875452;29;20714;-71
2022/11/29 13:11:01;;;;;;;8.67;3.80;;;10.80;99.90;;;;;;4873033;29;20226;-71
2022/11/29 13:13:38;;;;;;;7.33;3.90;;;10.60;99.90;;;;;;4861062;29;20212;-78
2022/11/29 13:16:14;;;;;;;6.90;3.70;;;10.40;99.90;;;;;;4860472;29;20374;-77
2022/11/29 13:18:46;;;;;;;7.67;3.83;;;10.40;99.90;;;;;;4869035;29;20644;-76
2022/11/29 13:21:16;;;;;;;7.93;3.80;;;10.20;99.90;;;;;;4878754;29;20253;-73
2022/11/29 13:23:50;;;;;;;9.57;3.90;;;10.10;99.90;;;;;;4878719;29;20215;-77
2022/11/29 13:26:18;;;;;;;10.10;3.93;;;10.10;99.90;;;;;;4879037;29;20218;-74
2022/11/29 13:28:46;;;;;;;9.27;4.30;;;10.20;99.90;;;;;;4878835;29;20566;-76
2022/11/29 13:31:18;;;;;;;8.13;3.70;;;10.20;99.90;;;;;;4878297;29;20219;-73
2022/11/29 13:33:55;;;;;;;6.70;3.90;;;10.30;99.90;;;;;;4878653;29;20287;-73
2022/11/29 13:36:31;;;;;;;6.90;3.70;;;10.20;99.90;;;;;;4877573;29;20245;-74
2022/11/29 13:39:10;;;;;;;10.40;4.27;;;10.10;99.90;;;;;;4877769;29;20598;-73
2022/11/29 13:41:44;;;;;;;8.53;4.00;;;10.00;99.90;;;;;;4878859;29;20214;-73
2022/11/29 13:44:17;;;;;;;7.60;4.00;;;10.10;99.90;;;;;;4878872;29;20701;-72
2022/11/29 13:46:53;;;;;;;6.53;4.20;;;10.30;99.90;;;;;;4877906;29;20225;-75
2022/11/29 13:49:23;;;;;;;7.23;3.73;;;10.40;99.90;;;;;;4877429;29;20714;-73
2022/11/29 13:52:05;;;;;;;9.40;3.87;;;10.40;99.90;;;;;;4878211;29;20302;-77
2022/11/29 13:54:33;;;;;;;8.33;4.30;;;10.30;99.90;;;;;;4878425;29;20628;-83
2022/11/29 13:57:05;;;;;;;12.13;4.47;;;10.50;99.90;;;;;;4878087;29;20580;-74
2022/11/29 13:59:34;;;;;;;7.27;3.37;;;10.60;99.90;;;;;;4877675;29;20275;-75
2022/11/29 14:02:03;;;;;;;7.57;3.57;;;10.60;99.90;;;;;;4877816;29;20302;-72
2022/11/29 14:04:35;;;;;;;7.90;3.53;;;10.70;99.90;;;;;;4877803;29;20211;-76
2022/11/29 14:07:06;;;;;;;7.37;3.93;;;10.80;99.90;;;;;;4878030;29;20266;-74
2022/11/29 14:09:38;;;;;;;6.93;4.07;;;10.90;99.90;;;;;;4878114;29;20230;-74
2022/11/29 14:12:35;;;;;;;12.33;3.80;;;10.80;99.90;;;;;;4878505;29;20749;-76
2022/11/29 14:15:19;;;;;;;10.70;3.80;;;10.60;99.90;;;;;;4878984;29;20231;-73
2022/11/29 14:17:51;;;;;;;9.33;3.80;;;10.50;99.90;;;;;;4877516;29;20207;-76
2022/11/29 14:20:50;;;;;;;11.53;4.47;;;10.40;99.90;;;;;;4878985;29;20718;-76
2022/11/29 14:23:30;;;;;;;10.30;4.57;;;10.50;99.90;;;;;;4879021;29;20619;-75
2022/11/29 14:26:22;;;;;;;9.50;4.37;;;10.60;99.90;;;;;;4879279;29;20224;-74
2022/11/29 14:28:49;;;;;;;8.30;4.27;;;10.60;99.90;;;;;;4878910;29;20606;-73
2022/11/29 14:31:50;;;;;;;8.00;4.30;;;10.70;99.90;;;;;;4878875;29;20223;-74
2022/11/29 14:34:44;;;;;;;9.00;5.03;;;10.80;99.90;;;;;;4878920;29;20214;-73
2022/11/29 14:37:35;;;;;;;10.37;4.93;;;11.00;99.90;;;;;;4879019;29;20681;-74
2022/11/29 14:40:13;;;;;;;10.37;4.63;;;11.00;99.90;;;;;;4874503;29;20234;-74
2022/11/29 14:42:46;;;;;;;12.20;5.10;;;10.90;99.90;;;;;;4879053;29;20700;-74
2022/11/29 14:45:24;;;;;;;10.50;5.10;;;10.90;99.90;;;;;;4879231;29;20215;-73
2022/11/29 14:47:52;;;;;;;14.30;5.83;;;10.70;99.90;;;;;;4880225;29;20221;-73
2022/11/29 14:50:35;;;;;;;10.93;5.03;;;10.60;99.90;;;;;;4882760;29;20241;-73
2022/11/29 14:53:03;;;;;;;10.37;4.77;;;10.50;99.90;;;;;;4882925;29;20213;-73
2022/11/29 14:55:34;;;;;;;10.33;4.63;;;10.40;99.90;;;;;;4882662;29;20239;-74
2022/11/29 14:58:15;;;;;;;10.50;5.30;;;10.50;99.90;;;;;;4882591;29;20210;-72
2022/11/29 15:00:55;;;;;;;12.47;4.97;;;10.50;99.90;;;;;;4883382;29;20238;-73
2022/11/29 15:03:31;;;;;;;11.50;5.00;;;10.30;99.90;;;;;;4882662;29;20225;-73
2022/11/29 15:06:07;;;;;;;12.47;4.77;;;10.30;99.90;;;;;;4882579;29;20623;-74
2022/11/29 15:08:39;;;;;;;15.17;5.00;;;10.30;99.90;;;;;;4882554;29;20210;-72
2022/11/29 15:11:16;;;;;;;10.23;5.00;;;10.30;99.90;;;;;;4882241;29;20222;-73
2022/11/29 15:13:51;;;;;;;10.60;5.50;;;10.40;99.90;;;;;;4882437;29;20207;-72
2022/11/29 15:16:31;;;;;;;9.50;4.77;;;10.40;99.90;;;;;;4881970;29;20260;-74
2022/11/29 15:19:23;;;;;;;8.30;4.30;;;10.40;99.90;;;;;;4881881;29;20237;-72
2022/11/29 15:22:02;;;;;;;14.17;5.30;;;10.40;99.90;;;;;;4882506;29;20243;-71
2022/11/29 15:24:29;;;;;;;9.13;4.67;;;10.30;99.90;;;;;;4882153;29;20214;-72
2022/11/29 15:26:57;;;;;;;10.60;5.07;;;10.30;99.90;;;;;;4882360;29;20219;-74
2022/11/29 15:29:24;;;;;;;9.83;4.97;;;10.50;99.90;;;;;;4882629;29;20317;-74
2022/11/29 15:31:53;;;;;;;11.90;5.57;;;10.50;99.90;;;;;;4882160;29;20223;-72
2022/11/29 15:34:29;;;;;;;12.50;5.53;;;10.50;99.90;;;;;;4882236;29;20217;-72
2022/11/29 15:36:57;;;;;;;11.57;5.10;;;10.30;99.90;;;;;;4881888;29;20240;-73
2022/11/29 15:39:29;;;;;;;8.60;4.83;;;10.20;99.90;;;;;;4881920;29;20703;-74
2022/11/29 15:42:01;;;;;;;8.17;4.70;;;10.30;99.90;;;;;;4881813;29;20240;-73
2022/11/29 15:44:31;;;;;;;13.60;4.97;;;10.30;99.90;;;;;;4882161;29;20207;-72
2022/11/29 15:47:14;;;;;;;12.03;5.23;;;10.40;99.90;;;;;;4881735;29;20287;-73
2022/11/29 15:49:41;;;;;;;11.50;5.00;;;10.40;99.90;;;;;;4881551;29;20239;-73
2022/11/29 15:52:14;;;;;;;11.30;4.90;;;10.40;99.90;;;;;;4882002;29;20217;-71
2022/11/29 15:54:43;;;;;;;11.50;4.93;;;10.40;99.90;;;;;;4881951;29;20211;-71
2022/11/29 15:57:14;;;;;;;12.30;5.13;;;10.40;99.90;;;;;;4881812;29;20249;-72
2022/11/29 15:59:46;;;;;;;9.40;4.93;;;10.40;99.90;;;;;;4880642;29;20235;-71
2022/11/29 16:02:19;;;;;;;11.43;4.17;;;10.30;99.90;;;;;;4881381;29;20215;-71
2022/11/29 16:04:47;;;;;;;12.40;4.67;;;10.10;99.90;;;;;;4881402;29;20233;-72
2022/11/29 16:07:17;;;;;;;6.80;3.80;;;10.20;99.90;;;;;;4881297;29;20215;-71
2022/11/29 16:09:46;;;;;;;7.70;4.80;;;10.10;99.90;;;;;;4881554;29;20274;-72
2022/11/29 16:12:16;;;;;;;11.23;4.33;;;10.10;99.90;;;;;;4881291;29;20211;-72
2022/11/29 16:14:52;;;;;;;8.67;4.70;;;9.80;99.90;;;;;;4881602;29;20217;-73
2022/11/29 16:17:20;;;;;;;11.77;5.07;;;9.50;99.90;;;;;;4881044;29;20245;-72
2022/11/29 16:19:47;;;;;;;8.47;4.93;;;9.50;99.90;;;;;;4881199;29;20234;-71
2022/11/29 16:22:21;;;;;;;10.40;5.17;;;9.60;99.90;;;;;;4876927;29;20222;-74
2022/11/29 16:25:02;;;;;;;11.27;5.10;;;9.50;99.90;;;;;;4880998;29;20213;-74
2022/11/29 16:27:32;;;;;;;9.40;4.90;;;9.40;99.90;;;;;;4881065;29;20687;-72
2022/11/29 16:29:59;;;;;;;9.73;4.87;;;9.50;99.90;;;;;;4881106;29;20234;-73
2022/11/29 16:32:28;;;;;;;8.90;4.53;;;9.60;99.90;;;;;;4880987;29;20238;-74
2022/11/29 16:34:57;;;;;;;10.53;5.37;;;9.60;99.90;;;;;;4880686;29;20211;-73
2022/11/29 16:37:28;;;;;;;8.57;4.30;;;9.60;99.90;;;;;;4880231;29;20245;-74
2022/11/29 16:39:57;;;;;;;8.67;4.80;;;9.60;99.90;;;;;;4880432;29;20237;-73
2022/11/29 16:42:26;;;;;;;8.47;4.50;;;9.70;99.90;;;;;;4880352;29;20264;-72
2022/11/29 16:45:06;;;;;;;13.83;4.73;;;9.70;99.90;;;;;;4880712;29;20306;-73
2022/11/29 16:47:47;;;;;;;11.90;5.60;;;9.60;99.90;;;;;;4880831;29;20217;-73
2022/11/29 16:50:17;;;;;;;10.80;5.00;;;9.70;99.90;;;;;;4880212;29;20259;-73
2022/11/29 16:52:46;;;;;;;13.47;5.77;;;9.60;99.90;;;;;;4879736;29;20218;-72
2022/11/29 16:55:15;;;;;;;10.87;5.27;;;9.50;99.90;;;;;;4880554;29;20210;-72
2022/11/29 16:57:42;;;;;;;11.87;5.13;;;9.50;99.90;;;;;;4880742;29;20602;-74
2022/11/29 17:00:31;;;;;;;13.53;6.50;;;9.30;99.90;;;;;;4880492;29;20243;-73
2022/11/29 17:02:58;;;;;;;10.80;6.20;;;9.20;99.90;;;;;;4880031;29;20305;-73
2022/11/29 17:05:26;;;;;;;12.00;5.00;;;9.20;99.90;;;;;;4880141;29;20211;-74
2022/11/29 17:07:54;;;;;;;8.53;5.00;;;9.10;99.90;;;;;;4879921;29;20306;-73
2022/11/29 17:10:23;;;;;;;8.67;4.60;;;9.10;99.90;;;;;;4879768;29;20241;-74
2022/11/29 17:12:50;;;;;;;9.77;5.07;;;9.00;99.90;;;;;;4880229;29;20215;-74
2022/11/29 17:15:18;;;;;;;9.87;5.20;;;9.00;99.90;;;;;;4879933;29;20230;-74
2022/11/29 17:17:45;;;;;;;8.83;4.53;;;8.90;99.90;;;;;;4879777;29;20242;-72
2022/11/29 17:20:13;;;;;;;10.67;5.50;;;8.80;99.90;;;;;;4861636;29;20235;-75
2022/11/29 17:22:40;;;;;;;7.43;4.50;;;8.80;99.90;;;;;;4872350;29;20222;-72
2022/11/29 17:25:09;;;;;;;11.23;5.27;;;8.70;99.90;;;;;;4880140;29;20294;-72
2022/11/29 17:27:36;;;;;;;9.83;5.30;;;8.60;99.90;;;;;;4880117;29;20215;-73
2022/11/29 17:30:05;;;;;;;11.97;5.10;;;8.50;99.90;;;;;;4880023;29;20237;-74
2022/11/29 17:32:34;;;;;;;9.03;5.00;;;8.50;99.90;;;;;;4870926;29;20215;-71
2022/11/29 17:35:01;;;;;;;10.87;4.77;;;8.40;99.90;;;;;;4878417;29;20207;-72
2022/11/29 17:37:28;;;;;;;8.10;5.03;;;8.30;99.90;;;;;;4879430;29;20598;-72
2022/11/29 17:39:55;;;;;;;9.93;4.73;;;8.30;99.90;;;;;;4879291;29;20226;-72
2022/11/29 17:42:23;;;;;;;9.87;5.13;;;8.20;99.90;;;;;;4879742;29;20229;-72
2022/11/29 17:44:50;;;;;;;12.67;5.53;;;8.10;99.90;;;;;;4879577;29;20215;-72
2022/11/29 17:47:17;;;;;;;11.67;5.13;;;7.90;99.90;;;;;;4879773;29;20214;-71
2022/11/29 17:49:44;;;;;;;12.27;6.00;;;7.90;99.90;;;;;;4879511;29;20586;-71
2022/11/29 17:52:11;;;;;;;13.33;5.60;;;7.90;99.90;;;;;;4879286;29;20268;-72
2022/11/29 17:54:38;;;;;;;11.87;5.57;;;7.80;99.90;;;;;;4879396;29;20310;-73
2022/11/29 17:57:05;;;;;;;10.23;5.93;;;7.80;99.90;;;;;;4879532;29;20241;-73
2022/11/29 17:59:33;;;;;;;11.67;5.67;;;7.70;99.90;;;;;;4879298;29;20235;-72
2022/11/29 18:02:00;;;;;;;10.80;6.03;;;7.70;99.90;;;;;;4879401;29;20223;-72
2022/11/29 18:04:27;;;;;;;16.70;6.07;;;7.60;99.90;;;;;;4878868;29;20560;-71
2022/11/29 18:06:54;;;;;;;12.93;5.60;;;7.60;99.90;;;;;;4879342;29;20659;-72
2022/11/29 18:09:21;;;;;;;11.40;5.77;;;7.50;99.90;;;;;;4879302;29;20681;-71
2022/11/29 18:11:48;;;;;;;11.77;5.27;;;7.50;99.90;;;;;;4879556;29;20254;-71
2022/11/29 18:14:17;;;;;;;12.00;6.03;;;7.50;99.90;;;;;;4879145;29;20242;-71
2022/11/29 18:16:45;;;;;;;12.17;6.30;;;7.50;99.90;;;;;;4879383;29;20234;-72
2022/11/29 18:19:14;;;;;;;10.87;5.83;;;7.50;99.90;;;;;;4879111;29;20227;-72
2022/11/29 18:21:41;;;;;;;16.40;6.27;;;7.50;99.90;;;;;;4878752;29;20221;-72
2022/11/29 18:24:09;;;;;;;13.53;6.50;;;7.60;99.90;;;;;;4878575;29;20619;-73
2022/11/29 18:26:36;;;;;;;17.07;7.27;;;7.70;99.90;;;;;;4879350;29;20230;-71
2022/11/29 18:29:04;;;;;;;16.93;7.03;;;7.70;99.90;;;;;;4878811;29;20231;-71
2022/11/29 18:31:33;;;;;;;20.40;8.70;;;7.80;99.90;;;;;;4879217;29;20214;-71
2022/11/29 18:34:05;;;;;;;20.67;8.27;;;7.90;99.90;;;;;;4874303;29;20214;-71
2022/11/29 18:36:34;;;;;;;21.53;8.23;;;8.00;99.90;;;;;;4879036;29;20243;-72
2022/11/29 18:39:04;;;;;;;23.90;9.87;;;8.00;99.90;;;;;;4879999;29;20238;-72
2022/11/29 18:41:31;;;;;;;17.10;6.80;;;7.90;99.90;;;;;;4879885;29;20225;-72
2022/11/29 18:43:59;;;;;;;17.63;7.13;;;7.90;99.90;;;;;;4879912;29;20217;-72
2022/11/29 18:46:30;;;;;;;20.93;7.77;;;7.80;99.90;;;;;;4880004;29;20691;-72
2022/11/29 18:48:58;;;;;;;25.77;7.87;;;7.70;99.90;;;;;;4879382;29;20227;-71
2022/11/29 18:51:27;;;;;;;15.07;7.90;;;7.80;99.90;;;;;;4878551;29;20203;-71
2022/11/29 18:53:54;;;;;;;16.40;7.93;;;7.70;99.90;;;;;;4878470;29;20686;-71
2022/11/29 18:56:23;;;;;;;15.20;7.67;;;7.70;99.90;;;;;;4879011;29;20234;-71
2022/11/29 18:58:54;;;;;;;22.53;7.30;;;7.80;99.90;;;;;;4878686;29;20211;-71
2022/11/29 19:01:22;;;;;;;17.30;7.23;;;7.90;99.90;;;;;;4878835;29;20211;-71
2022/11/29 19:03:50;;;;;;;15.80;7.03;;;7.80;99.90;;;;;;4878230;29;20219;-71
2022/11/29 19:06:19;;;;;;;17.97;8.00;;;7.80;99.90;;;;;;4878499;29;20207;-71
2022/11/29 19:08:48;;;;;;;15.23;7.57;;;7.80;99.90;;;;;;4878912;29;20207;-71
2022/11/29 19:11:17;;;;;;;18.47;7.20;;;7.90;99.90;;;;;;4878831;29;20207;-71
2022/11/29 19:13:45;;;;;;;16.33;6.23;;;7.90;99.90;;;;;;4878442;29;20211;-72
2022/11/29 19:16:14;;;;;;;23.90;6.93;;;7.80;99.90;;;;;;4878780;29;20303;-71
2022/11/29 19:18:41;;;;;;;19.00;6.87;;;7.70;99.90;;;;;;4878425;29;20218;-71
2022/11/29 19:21:10;;;;;;;19.47;6.90;;;7.60;99.90;;;;;;4878654;29;20215;-72
2022/11/29 19:23:37;;;;;;;16.03;6.27;;;7.60;99.90;;;;;;4878387;29;20203;-70
2022/11/29 19:26:07;;;;;;;15.50;6.30;;;7.70;99.90;;;;;;4878481;29;20211;-71
2022/11/29 19:28:36;;;;;;;14.77;6.47;;;7.70;99.90;;;;;;4878052;29;20211;-72
2022/11/29 19:31:04;;;;;;;13.97;6.57;;;7.70;99.90;;;;;;4878130;29;20207;-74
2022/11/29 19:33:30;;;;;;;21.00;7.40;;;7.70;99.90;;;;;;4869249;29;20670;-72
2022/11/29 19:36:04;;;;;;;19.70;7.70;;;7.60;99.90;;;;;;4872212;29;20213;-71
2022/11/29 19:38:31;;;;;;;19.73;7.47;;;7.60;99.90;;;;;;4872041;29;20249;-72
2022/11/29 19:40:57;;;;;;;19.23;7.87;;;7.70;99.90;;;;;;4879270;29;20235;-71
2022/11/29 19:43:25;;;;;;;14.83;6.83;;;7.80;99.90;;;;;;4871148;29;20211;-74
2022/11/29 19:45:52;;;;;;;24.30;6.23;;;7.80;99.90;;;;;;4875498;29;20208;-71
2022/11/29 19:48:19;;;;;;;13.23;6.50;;;7.80;99.90;;;;;;4872368;29;20212;-72
2022/11/29 19:50:46;;;;;;;32.37;8.70;;;8.00;99.90;;;;;;4877337;29;20275;-74
2022/11/29 19:53:13;;;;;;;21.27;8.50;;;8.00;99.90;;;;;;4876708;29;20211;-72
2022/11/29 19:55:39;;;;;;;18.90;7.83;;;7.90;99.90;;;;;;4876150;29;20537;-72
2022/11/29 19:58:06;;;;;;;17.30;7.40;;;8.00;99.90;;;;;;4872387;29;20317;-72
2022/11/29 20:00:34;;;;;;;18.27;7.23;;;8.00;99.90;;;;;;4874641;29;20657;-71
2022/11/29 20:03:01;;;;;;;20.33;7.17;;;8.00;99.90;;;;;;4875855;29;20219;-72
2022/11/29 20:05:28;;;;;;;16.33;6.97;;;7.90;99.90;;;;;;4874911;29;20298;-72
2022/11/29 20:07:55;;;;;;;17.27;7.63;;;7.90;99.90;;;;;;4879955;29;20216;-73
2022/11/29 20:10:22;;;;;;;16.53;7.30;;;7.90;99.90;;;;;;4872500;29;20232;-72
2022/11/29 20:12:49;;;;;;;23.37;9.00;;;7.90;99.90;;;;;;4874934;29;20271;-71
2022/11/29 20:15:16;;;;;;;27.03;8.93;;;8.00;99.90;;;;;;4869397;29;20223;-72
2022/11/29 20:17:44;;;;;;;22.23;7.63;;;7.90;99.90;;;;;;4875044;29;20575;-74
2022/11/29 20:20:12;;;;;;;26.73;8.03;;;7.90;99.90;;;;;;4874893;29;20227;-73
2022/11/29 20:22:39;;;;;;;31.13;8.33;;;7.90;99.90;;;;;;4880378;29;20215;-73
2022/11/29 20:25:06;;;;;;;20.97;8.80;;;7.80;99.90;;;;;;4875354;29;20263;-73
2022/11/29 20:27:33;;;;;;;19.43;8.37;;;8.00;99.90;;;;;;4879568;29;20214;-74
2022/11/29 20:30:00;;;;;;;20.83;8.00;;;8.00;99.90;;;;;;4873915;29;20234;-73
2022/11/29 20:32:27;;;;;;;21.37;9.20;;;7.90;99.90;;;;;;4874120;29;20211;-73
2022/11/29 20:34:56;;;;;;;18.10;7.70;;;7.90;99.90;;;;;;4875554;29;20212;-75
2022/11/29 20:37:34;;;;;;;19.90;8.73;;;7.90;99.90;;;;;;4878141;29;20294;-74
2022/11/29 20:40:04;;;;;;;20.40;8.83;;;7.90;99.90;;;;;;4864351;29;20271;-71
2022/11/29 20:42:49;;;;;;;18.97;8.13;;;8.00;99.90;;;;;;4875951;29;20725;-72
2022/11/29 20:45:17;;;;;;;17.23;7.87;;;8.00;99.90;;;;;;4878374;29;20207;-71
2022/11/29 20:47:50;;;;;;;21.50;7.83;;;8.10;99.90;;;;;;4871618;29;20226;-71
2022/11/29 20:50:21;;;;;;;19.97;7.70;;;8.10;99.90;;;;;;4875008;29;20227;-72
2022/11/29 20:52:59;;;;;;;17.93;7.67;;;8.20;99.90;;;;;;4867261;29;20208;-74
2022/11/29 20:55:26;;;;;;;19.40;7.50;;;8.20;99.90;;;;;;4877231;29;20219;-73
2022/11/29 20:57:53;;;;;;;18.80;8.10;;;8.30;99.90;;;;;;4870401;29;20236;-73
2022/11/29 21:00:20;;;;;;;23.77;8.60;;;8.30;99.90;;;;;;4874081;29;20231;-73
2022/11/29 21:02:47;;;;;;;21.57;8.03;;;8.30;99.90;;;;;;4869358;29;20234;-74
2022/11/29 21:05:15;;;;;;;18.10;8.00;;;8.50;99.90;;;;;;4873360;29;20208;-72
2022/11/29 21:07:44;;;;;;;21.03;8.53;;;8.50;99.90;;;;;;4862139;29;20719;-73
2022/11/29 21:10:13;;;;;;;21.17;7.70;;;8.50;99.90;;;;;;4875681;29;20671;-72
2022/11/29 21:12:40;;;;;;;25.03;8.23;;;8.50;99.90;;;;;;4879413;29;20258;-72
2022/11/29 21:15:09;;;;;;;24.30;8.37;;;8.50;99.90;;;;;;4878116;29;20716;-71
2022/11/29 21:17:36;;;;;;;23.57;8.57;;;8.60;99.90;;;;;;4880055;29;20230;-72
2022/11/29 21:20:04;;;;;;;20.80;8.03;;;8.50;99.90;;;;;;4879535;29;20237;-72
2022/11/29 21:22:39;;;;;;;17.70;8.43;;;8.60;99.90;;;;;;4880156;29;20237;-71
2022/11/29 21:25:15;;;;;;;22.77;7.93;;;8.70;99.90;;;;;;4880209;29;20210;-72
2022/11/29 21:27:42;;;;;;;23.80;8.97;;;8.70;99.90;;;;;;4880158;29;20214;-71
2022/11/29 21:30:16;;;;;;;18.60;8.27;;;8.80;99.90;;;;;;4880311;29;20614;-72
2022/11/29 21:32:44;;;;;;;21.57;7.93;;;8.80;99.90;;;;;;4880053;29;20210;-71
2022/11/29 21:35:11;;;;;;;21.77;7.47;;;8.80;99.90;;;;;;4879929;29;20219;-71
2022/11/29 21:37:38;;;;;;;23.13;8.00;;;8.80;99.90;;;;;;4879973;29;20266;-70
2022/11/29 21:40:08;;;;;;;22.60;9.00;;;8.70;99.90;;;;;;4879724;29;20238;-71
2022/11/29 21:42:35;;;;;;;20.47;8.87;;;8.60;99.90;;;;;;4879613;29;20274;-71
2022/11/29 21:45:02;;;;;;;19.43;7.77;;;8.60;99.90;;;;;;4879599;29;20218;-71
2022/11/29 21:47:30;;;;;;;20.67;8.10;;;8.60;99.90;;;;;;4879799;29;20613;-71
2022/11/29 21:49:57;;;;;;;20.07;8.10;;;8.50;99.90;;;;;;4879507;29;20234;-72
2022/11/29 21:52:23;;;;;;;22.27;8.93;;;8.60;99.90;;;;;;4879717;29;20214;-72
2022/11/29 21:54:50;;;;;;;21.87;7.90;;;8.60;99.90;;;;;;4879582;29;20233;-72
2022/11/29 21:57:18;;;;;;;18.20;7.70;;;8.70;99.90;;;;;;4878899;29;20234;-72
2022/11/29 21:59:45;;;;;;;16.50;7.33;;;8.70;99.90;;;;;;4879490;29;20234;-72
2022/11/29 22:02:12;;;;;;;18.37;8.30;;;8.80;99.90;;;;;;4879534;29;20227;-72
2022/11/29 22:04:39;;;;;;;16.60;8.07;;;8.90;99.90;;;;;;4879428;29;20542;-72
2022/11/29 22:07:05;;;;;;;23.47;7.07;;;8.80;99.90;;;;;;4879468;29;20207;-72
